createdAt,value
2023-04-22T00:00:28.953Z,11.19
2023-04-22T00:02:56.558Z,11.20
2023-04-22T00:05:23.682Z,11.21
2023-04-22T00:07:50.798Z,11.20
2023-04-22T00:10:17.926Z,11.18
2023-04-22T00:12:45.503Z,11.18
2023-04-22T00:15:12.796Z,11.17
2023-04-22T00:17:41.219Z,11.20
2023-04-22T00:20:10.918Z,11.26
2023-04-22T00:22:37.919Z,11.20
2023-04-22T00:25:05.580Z,11.27
2023-04-22T00:27:32.579Z,11.28
2023-04-22T00:29:59.553Z,11.20
2023-04-22T00:32:26.974Z,11.19
2023-04-22T00:34:54.469Z,11.14
2023-04-22T00:37:21.507Z,11.23
2023-04-22T00:39:48.481Z,10.91
2023-04-22T00:42:16.747Z,10.91
2023-04-22T00:44:47.006Z,11.08
2023-04-22T00:47:14.433Z,11.02
2023-04-22T00:49:41.968Z,10.83
2023-04-22T00:52:09.072Z,10.80
2023-04-22T00:54:36.572Z,10.88
2023-04-22T00:57:05.511Z,10.86
2023-04-22T00:59:32.879Z,10.83
2023-04-22T01:02:00.783Z,10.86
2023-04-22T01:04:28.612Z,11.02
2023-04-22T01:06:55.652Z,10.97
2023-04-22T01:09:22.735Z,10.84
2023-04-22T01:11:49.720Z,10.95
2023-04-22T01:14:16.900Z,10.98
2023-04-22T01:16:45.736Z,10.92
2023-04-22T01:19:12.992Z,10.98
2023-04-22T01:21:41.028Z,10.98
2023-04-22T01:24:09.306Z,10.97
2023-04-22T01:26:37.213Z,10.98
2023-04-22T01:29:06.226Z,10.92
2023-04-22T01:31:33.866Z,10.87
2023-04-22T01:34:02.017Z,10.85
2023-04-22T01:36:29.478Z,10.84
2023-04-22T01:38:57.233Z,10.80
2023-04-22T01:41:24.906Z,10.70
2023-04-22T01:43:54.489Z,10.63
2023-04-22T01:46:22.021Z,10.65
2023-04-22T01:48:52.140Z,10.65
2023-04-22T01:51:23.838Z,10.68
2023-04-22T01:53:51.864Z,10.72
2023-04-22T01:56:19.756Z,10.55
2023-04-22T01:58:47.195Z,10.49
2023-04-22T02:01:14.652Z,10.39
2023-04-22T02:03:42.197Z,10.36
2023-04-22T02:06:09.541Z,10.46
2023-04-22T02:08:36.950Z,10.50
2023-04-22T02:11:04.332Z,10.46
2023-04-22T02:13:39.268Z,10.52
2023-04-22T02:16:07.535Z,10.57
2023-04-22T02:18:35.178Z,10.39
2023-04-22T02:21:02.634Z,10.26
2023-04-22T02:23:29.978Z,10.29
2023-04-22T02:25:57.419Z,10.32
2023-04-22T02:28:24.765Z,10.19
2023-04-22T02:30:52.139Z,10.20
2023-04-22T02:33:19.511Z,10.15
2023-04-22T02:35:47.021Z,10.04
2023-04-22T02:38:14.377Z,10.02
2023-04-22T02:40:41.694Z,10.05
2023-04-22T02:43:09.044Z,10.06
2023-04-22T02:45:36.472Z,10.04
2023-04-22T02:48:03.957Z,10.07
2023-04-22T02:50:31.413Z,10.11
2023-04-22T02:52:58.753Z,10.12
2023-04-22T02:55:26.190Z,10.14
2023-04-22T02:57:53.628Z,10.16
2023-04-22T03:00:21.064Z,10.08
2023-04-22T03:02:48.584Z,10.07
2023-04-22T03:05:16.060Z,10.03
2023-04-22T03:07:44.593Z,9.95
2023-04-22T03:10:11.654Z,9.96
2023-04-22T03:12:39.071Z,9.89
2023-04-22T03:15:06.989Z,9.88
2023-04-22T03:17:34.869Z,9.88
2023-04-22T03:20:02.213Z,9.84
2023-04-22T03:22:29.653Z,9.66
2023-04-22T03:24:56.943Z,9.61
2023-04-22T03:27:24.365Z,9.62
2023-04-22T03:29:51.700Z,9.62
2023-04-22T03:32:19.087Z,9.55
2023-04-22T03:34:46.500Z,9.53
2023-04-22T03:37:14.381Z,9.52
2023-04-22T03:39:41.936Z,9.42
2023-04-22T03:42:10.831Z,9.24
2023-04-22T03:44:38.182Z,9.29
2023-04-22T03:47:06.088Z,9.31
2023-04-22T03:49:33.705Z,9.06
2023-04-22T03:52:01.516Z,8.97
2023-04-22T03:54:28.875Z,8.96
2023-04-22T03:56:56.250Z,9.01
2023-04-22T03:59:23.694Z,9.05
2023-04-22T04:01:53.800Z,9.09
2023-04-22T04:04:23.334Z,9.06
2023-04-22T04:06:51.336Z,9.03
2023-04-22T04:09:18.689Z,8.92
2023-04-22T04:11:46.116Z,8.85
2023-04-22T04:14:13.475Z,8.46
2023-04-22T04:16:40.957Z,8.49
2023-04-22T04:19:08.323Z,8.69
2023-04-22T04:21:35.694Z,8.59
2023-04-22T04:24:04.252Z,8.59
2023-04-22T04:26:32.554Z,8.61
2023-04-22T04:29:01.746Z,8.65
2023-04-22T04:31:29.334Z,8.72
2023-04-22T04:33:57.441Z,8.72
2023-04-22T04:36:29.417Z,8.63
2023-04-22T04:38:56.885Z,8.70
2023-04-22T04:41:27.010Z,8.66
2023-04-22T04:43:54.553Z,8.70
2023-04-22T04:46:21.932Z,8.74
2023-04-22T04:48:51.754Z,8.75
2023-04-22T04:51:20.350Z,8.80
2023-04-22T04:53:47.683Z,8.86
2023-04-22T04:56:15.145Z,8.92
2023-04-22T04:58:42.568Z,9.01
2023-04-22T05:01:09.945Z,9.00
2023-04-22T05:03:37.505Z,9.06
2023-04-22T05:06:05.278Z,9.08
2023-04-22T05:08:33.269Z,9.06
2023-04-22T05:11:00.712Z,9.08
2023-04-22T05:13:28.339Z,9.11
2023-04-22T05:15:55.766Z,9.11
2023-04-22T05:18:23.168Z,9.12
2023-04-22T05:20:50.593Z,9.01
2023-04-22T05:23:18.006Z,9.02
2023-04-22T05:25:45.533Z,8.98
2023-04-22T05:28:12.869Z,8.95
2023-04-22T05:30:39.839Z,8.89
2023-04-22T05:33:08.758Z,8.92
2023-04-22T05:35:36.298Z,8.89
2023-04-22T05:38:03.763Z,8.85
2023-04-22T05:40:31.103Z,8.89
2023-04-22T05:42:58.548Z,9.04
2023-04-22T05:45:25.696Z,9.08
2023-04-22T05:47:53.073Z,9.20
2023-04-22T05:50:22.778Z,9.32
2023-04-22T05:52:50.875Z,9.43
2023-04-22T05:55:18.746Z,9.57
2023-04-22T05:57:46.131Z,9.68
2023-04-22T06:00:14.177Z,9.79
2023-04-22T06:02:41.704Z,9.87
2023-04-22T06:05:09.749Z,9.95
2023-04-22T06:07:37.381Z,10.04
2023-04-22T06:10:05.592Z,10.20
2023-04-22T06:12:34.682Z,10.42
2023-04-22T06:15:02.196Z,10.65
2023-04-22T06:17:29.614Z,10.66
2023-04-22T06:19:57.282Z,10.75
2023-04-22T06:22:24.708Z,10.87
2023-04-22T06:24:52.120Z,11.08
2023-04-22T06:27:19.530Z,11.15
2023-04-22T06:29:47.044Z,11.11
2023-04-22T06:32:14.369Z,11.19
2023-04-22T06:34:41.951Z,11.26
2023-04-22T06:37:09.864Z,11.43
2023-04-22T06:39:37.814Z,11.53
2023-04-22T06:42:05.514Z,11.73
2023-04-22T06:44:33.180Z,11.82
2023-04-22T06:47:00.688Z,11.82
2023-04-22T06:49:28.111Z,11.97
2023-04-22T06:51:55.576Z,12.12
2023-04-22T06:54:22.513Z,12.25
2023-04-22T06:57:03.187Z,12.21
2023-04-22T06:59:30.653Z,12.20
2023-04-22T07:01:58.059Z,12.13
2023-04-22T07:04:27.678Z,12.18
2023-04-22T07:06:55.403Z,12.18
2023-04-22T07:09:22.732Z,12.25
2023-04-22T07:11:49.871Z,12.28
2023-04-22T07:14:17.066Z,12.52
2023-04-22T07:16:44.422Z,12.49
2023-04-22T07:19:11.940Z,12.37
2023-04-22T07:21:39.287Z,12.49
2023-04-22T07:24:06.989Z,12.93
2023-04-22T07:26:34.545Z,12.98
2023-04-22T07:29:01.849Z,13.10
2023-04-22T07:31:29.223Z,13.23
2023-04-22T07:33:56.709Z,13.39
2023-04-22T07:36:24.141Z,13.49
2023-04-22T07:38:51.715Z,13.34
2023-04-22T07:41:19.068Z,13.66
2023-04-22T07:43:46.500Z,13.60
2023-04-22T07:46:13.641Z,13.88
2023-04-22T07:48:50.150Z,13.99
2023-04-22T07:51:23.249Z,14.16
2023-04-22T07:53:50.663Z,14.09
2023-04-22T07:56:18.165Z,14.53
2023-04-22T07:58:45.560Z,14.63
2023-04-22T08:01:12.978Z,14.56
2023-04-22T08:03:40.527Z,14.67
2023-04-22T08:06:08.665Z,14.69
2023-04-22T08:08:35.999Z,15.03
2023-04-22T08:11:03.541Z,15.19
2023-04-22T08:13:31.039Z,15.67
2023-04-22T08:15:58.508Z,15.89
2023-04-22T08:18:25.948Z,16.06
2023-04-22T08:20:53.293Z,16.16
2023-04-22T08:23:21.494Z,16.01
2023-04-22T08:25:50.170Z,16.12
2023-04-22T08:28:17.766Z,16.51
2023-04-22T08:30:45.420Z,16.72
2023-04-22T08:33:12.843Z,16.97
2023-04-22T08:35:40.422Z,17.05
2023-04-22T08:38:07.788Z,17.37
2023-04-22T08:40:35.978Z,17.19
2023-04-22T08:43:04.021Z,17.07
2023-04-22T08:45:31.963Z,17.30
2023-04-22T08:47:59.442Z,17.41
2023-04-22T08:50:27.196Z,17.63
2023-04-22T08:52:54.569Z,17.80
2023-04-22T08:55:22.411Z,17.96
2023-04-22T08:57:50.315Z,17.93
2023-04-22T09:00:19.109Z,17.85
2023-04-22T09:02:48.430Z,17.69
2023-04-22T09:05:16.292Z,17.79
2023-04-22T09:07:43.566Z,17.90
2023-04-22T09:10:11.985Z,18.23
2023-04-22T09:12:41.039Z,18.34
2023-04-22T09:15:09.857Z,18.50
2023-04-22T09:17:41.424Z,18.32
2023-04-22T09:20:10.050Z,17.80
2023-04-22T09:22:46.736Z,18.56
2023-04-22T09:25:27.156Z,18.51
2023-04-22T09:27:57.938Z,18.73
2023-04-22T09:30:31.685Z,18.50
2023-04-22T09:33:02.002Z,18.97
2023-04-22T09:35:40.266Z,19.23
2023-04-22T09:38:13.038Z,19.21
2023-04-22T09:40:43.903Z,19.48
2023-04-22T09:43:11.898Z,19.72
2023-04-22T09:45:42.060Z,19.94
2023-04-22T09:48:18.706Z,19.69
2023-04-22T09:50:48.861Z,20.00
2023-04-22T09:53:19.023Z,20.05
2023-04-22T09:55:53.690Z,19.95
2023-04-22T09:58:23.896Z,19.91
2023-04-22T10:00:57.921Z,20.11
2023-04-22T10:03:25.885Z,19.91
2023-04-22T10:05:53.474Z,20.45
2023-04-22T10:08:20.598Z,20.83
2023-04-22T10:10:50.501Z,20.29
2023-04-22T10:13:17.903Z,20.47
2023-04-22T10:15:50.047Z,20.44
2023-04-22T10:18:25.181Z,20.31
2023-04-22T10:20:54.681Z,20.55
2023-04-22T10:23:24.802Z,21.12
2023-04-22T10:25:56.606Z,21.72
2023-04-22T10:28:28.573Z,21.53
2023-04-22T10:30:56.117Z,21.52
2023-04-22T10:33:34.764Z,21.52
2023-04-22T10:36:18.390Z,21.76
2023-04-22T10:38:54.180Z,21.63
2023-04-22T10:41:26.674Z,22.02
2023-04-22T10:44:05.109Z,21.91
2023-04-22T10:46:40.091Z,22.20
2023-04-22T10:49:13.306Z,22.05
2023-04-22T10:51:41.185Z,22.11
2023-04-22T10:54:31.479Z,21.97
2023-04-22T10:57:08.558Z,21.83
2023-04-22T10:59:58.604Z,22.68
2023-04-22T11:02:26.396Z,22.45
2023-04-22T11:05:27.485Z,22.71
2023-04-22T11:08:00.901Z,22.60
2023-04-22T11:10:46.523Z,22.07
2023-04-22T11:13:21.915Z,22.31
2023-04-22T11:15:54.116Z,22.76
2023-04-22T11:18:27.588Z,22.81
2023-04-22T11:20:55.425Z,22.34
2023-04-22T11:23:27.896Z,22.65
2023-04-22T11:26:00.278Z,23.05
2023-04-22T11:28:27.881Z,23.39
2023-04-22T11:31:11.861Z,23.26
2023-04-22T11:33:39.411Z,23.27
2023-04-22T11:36:11.863Z,23.22
2023-04-22T11:38:39.357Z,23.17
2023-04-22T11:41:07.199Z,23.43
2023-04-22T11:43:34.583Z,22.83
2023-04-22T11:46:02.164Z,22.34
2023-04-22T11:48:29.521Z,22.48
2023-04-22T11:51:11.771Z,22.18
2023-04-22T11:53:41.211Z,22.44
2023-04-22T11:56:08.764Z,22.77
2023-04-22T11:58:41.024Z,23.08
2023-04-22T12:01:14.043Z,23.37
2023-04-22T12:03:42.318Z,22.96
2023-04-22T12:06:09.956Z,21.99
2023-04-22T12:08:42.252Z,22.47
2023-04-22T12:11:11.731Z,21.90
2023-04-22T12:13:46.784Z,22.18
2023-04-22T12:16:19.750Z,22.01
2023-04-22T12:18:55.621Z,21.77
2023-04-22T12:21:25.214Z,21.92
2023-04-22T12:24:04.842Z,22.01
2023-04-22T12:26:32.448Z,22.11
2023-04-22T12:29:00.849Z,21.57
2023-04-22T12:34:12.094Z,21.37
2023-04-22T12:36:39.416Z,21.16
2023-04-22T12:39:06.836Z,21.07
2023-04-22T12:41:34.180Z,20.89
2023-04-22T12:44:01.590Z,20.73
2023-04-22T12:46:29.031Z,20.63
2023-04-22T12:48:56.489Z,20.49
2023-04-22T12:51:23.880Z,20.45
2023-04-22T12:53:51.247Z,20.36
2023-04-22T12:56:18.625Z,20.36
2023-04-22T12:58:46.147Z,20.16
2023-04-22T13:01:13.532Z,20.07
2023-04-22T13:03:41.233Z,20.05
2023-04-22T13:06:08.712Z,19.95
2023-04-22T13:08:38.572Z,19.81
2023-04-22T13:11:05.615Z,19.80
2023-04-22T13:13:33.086Z,19.81
2023-04-22T13:16:00.598Z,19.77
2023-04-22T13:18:27.969Z,19.72
2023-04-22T13:20:56.997Z,19.47
2023-04-22T13:23:25.994Z,19.34
2023-04-22T13:25:54.078Z,19.26
2023-04-22T13:28:21.406Z,19.17
2023-04-22T13:30:48.803Z,19.14
2023-04-22T13:33:15.717Z,19.14
2023-04-22T13:35:43.047Z,19.14
2023-04-22T13:38:10.433Z,19.21
2023-04-22T13:40:37.372Z,19.27
2023-04-22T13:43:04.813Z,19.27
2023-04-22T13:45:31.769Z,19.23
2023-04-22T13:47:58.810Z,19.30
2023-04-22T13:50:25.898Z,19.28
2023-04-22T13:52:53.105Z,19.24
2023-04-22T13:55:20.515Z,19.21
2023-04-22T13:57:47.747Z,19.14
2023-04-22T14:00:15.198Z,19.29
2023-04-22T14:02:42.656Z,19.31
2023-04-22T14:05:10.632Z,19.19
2023-04-22T14:07:38.199Z,19.19
2023-04-22T14:10:08.401Z,19.12
2023-04-22T14:12:35.857Z,19.15
2023-04-22T14:15:03.800Z,19.11
2023-04-22T14:17:31.323Z,19.07
2023-04-22T14:19:58.558Z,19.11
2023-04-22T14:22:25.878Z,19.13
2023-04-22T14:24:53.275Z,19.16
2023-04-22T14:27:20.784Z,19.23
2023-04-22T14:29:52.229Z,19.30
2023-04-22T14:32:22.451Z,19.24
2023-04-22T14:34:49.460Z,19.29
2023-04-22T14:37:16.376Z,19.24
2023-04-22T14:39:43.787Z,19.38
2023-04-22T14:42:11.053Z,19.37
2023-04-22T14:44:38.170Z,19.41
2023-04-22T14:47:05.397Z,19.47
2023-04-22T14:49:33.421Z,19.73
2023-04-22T14:52:01.539Z,20.01
2023-04-22T14:54:28.605Z,19.81
2023-04-22T14:56:56.470Z,19.76
2023-04-22T14:59:23.441Z,19.60
2023-04-22T15:01:50.640Z,19.50
2023-04-22T15:04:19.334Z,19.47
2023-04-22T15:06:46.950Z,19.47
2023-04-22T15:09:14.318Z,19.54
2023-04-22T15:11:44.022Z,19.57
2023-04-22T15:14:11.595Z,19.75
2023-04-22T15:16:39.038Z,19.89
2023-04-22T15:19:06.512Z,20.09
2023-04-22T15:21:33.944Z,20.14
2023-04-22T15:24:01.309Z,20.33
2023-04-22T15:26:29.909Z,20.21
2023-04-22T15:28:57.300Z,20.30
2023-04-22T15:31:26.873Z,20.23
2023-04-22T15:33:54.805Z,20.14
2023-04-22T15:36:26.201Z,20.21
2023-04-22T15:38:57.873Z,20.46
2023-04-22T15:41:26.241Z,20.25
2023-04-22T15:43:57.333Z,20.25
2023-04-22T15:46:29.222Z,20.26
2023-04-22T15:49:03.834Z,20.32
2023-04-22T15:51:33.628Z,20.24
2023-04-22T15:54:01.414Z,20.28
2023-04-22T15:56:29.537Z,20.19
2023-04-22T15:58:57.871Z,20.12
2023-04-22T16:01:25.251Z,20.03
2023-04-22T16:03:52.825Z,20.00
2023-04-22T16:06:21.156Z,20.15
2023-04-22T16:08:48.572Z,19.94
2023-04-22T16:11:16.279Z,19.80
2023-04-22T16:13:45.927Z,19.90
2023-04-22T16:16:13.399Z,19.80
2023-04-22T16:18:43.564Z,19.66
2023-04-22T16:21:12.102Z,19.59
2023-04-22T16:23:40.271Z,19.48
2023-04-22T16:26:07.662Z,19.56
2023-04-22T16:28:35.043Z,19.40
2023-04-22T16:31:02.910Z,19.33
2023-04-22T16:33:30.792Z,19.32
2023-04-22T16:36:04.539Z,19.32
2023-04-22T16:38:31.599Z,19.31
2023-04-22T16:41:00.926Z,19.26
2023-04-22T16:43:28.009Z,19.37
2023-04-22T16:45:58.576Z,19.32
2023-04-22T16:48:26.103Z,19.35
2023-04-22T16:50:54.163Z,19.30
2023-04-22T16:53:21.578Z,19.34
2023-04-22T16:55:48.997Z,19.30
2023-04-22T16:58:16.136Z,19.21
2023-04-22T17:00:44.479Z,19.16
2023-04-22T17:03:12.979Z,19.07
2023-04-22T17:05:40.692Z,19.06
2023-04-22T17:08:07.859Z,19.04
2023-04-22T17:10:35.529Z,18.99
2023-04-22T17:13:03.150Z,19.00
2023-04-22T17:15:30.699Z,19.00
2023-04-22T17:17:58.040Z,18.99
2023-04-22T17:20:25.493Z,18.96
2023-04-22T17:22:53.024Z,18.96
2023-04-22T17:25:20.436Z,18.82
2023-04-22T17:27:47.789Z,18.77
2023-04-22T17:30:14.937Z,18.76
2023-04-22T17:32:42.205Z,18.61
2023-04-22T17:35:10.063Z,18.56
2023-04-22T17:37:37.490Z,18.52
2023-04-22T17:40:05.203Z,18.41
2023-04-22T17:42:42.713Z,18.28
2023-04-22T17:45:12.508Z,18.26
2023-04-22T17:47:39.549Z,18.14
2023-04-22T17:50:07.715Z,18.14
2023-04-22T17:52:35.543Z,18.02
2023-04-22T17:55:03.211Z,18.01
2023-04-22T17:57:31.242Z,17.89
2023-04-22T17:59:58.293Z,17.85
2023-04-22T18:02:25.962Z,17.77
2023-04-22T18:04:53.535Z,17.64
2023-04-22T18:07:20.509Z,17.65
2023-04-22T18:09:49.631Z,17.58
2023-04-22T18:12:17.118Z,17.47
2023-04-22T18:14:44.668Z,17.44
2023-04-22T18:17:13.517Z,17.32
2023-04-22T18:19:40.810Z,17.23
2023-04-22T18:22:08.597Z,17.25
2023-04-22T18:24:36.560Z,17.16
2023-04-22T18:27:03.745Z,17.12
2023-04-22T18:29:31.455Z,17.05
2023-04-22T18:31:58.530Z,16.94
2023-04-22T18:34:25.886Z,16.86
2023-04-22T18:36:52.959Z,16.84
2023-04-22T18:39:20.022Z,16.74
2023-04-22T18:41:47.329Z,16.60
2023-04-22T18:44:14.727Z,16.57
2023-04-22T18:46:42.138Z,16.57
2023-04-22T18:49:09.037Z,16.48
2023-04-22T18:51:36.275Z,16.50
2023-04-22T18:54:03.337Z,16.45
2023-04-22T18:56:32.918Z,16.38
2023-04-22T18:59:00.128Z,16.25
2023-04-22T19:01:28.804Z,16.08
2023-04-22T19:03:56.473Z,16.04
2023-04-22T19:06:24.877Z,15.99
2023-04-22T19:08:52.953Z,16.07
2023-04-22T19:11:19.970Z,15.98
2023-04-22T19:13:47.371Z,15.94
2023-04-22T19:16:14.400Z,15.90
2023-04-22T19:18:43.090Z,15.87
2023-04-22T19:21:10.401Z,15.90
2023-04-22T19:23:38.238Z,15.93
2023-04-22T19:29:56.616Z,15.78
2023-04-22T19:32:24.112Z,15.75
2023-04-22T19:34:51.498Z,15.72
2023-04-22T19:37:18.879Z,15.69
2023-04-22T19:39:45.862Z,15.68
2023-04-22T19:42:13.242Z,15.64
2023-04-22T19:44:42.940Z,15.51
2023-04-22T19:47:10.542Z,15.53
2023-04-22T19:49:39.134Z,15.41
2023-04-22T19:52:09.509Z,15.32
2023-04-22T19:54:37.481Z,15.32
2023-04-22T19:57:06.579Z,15.29
2023-04-22T19:59:34.356Z,15.26
2023-04-22T20:02:02.075Z,15.20
2023-04-22T20:04:29.805Z,15.16
2023-04-22T20:06:59.006Z,15.10
2023-04-22T20:09:27.647Z,15.09
2023-04-22T20:11:55.115Z,14.99
2023-04-22T20:14:22.869Z,14.97
2023-04-22T20:16:50.645Z,14.94
2023-04-22T20:19:19.256Z,14.90
2023-04-22T20:21:49.756Z,14.81
2023-04-22T20:24:20.192Z,14.76
2023-04-22T20:26:48.048Z,14.73
2023-04-22T20:29:18.959Z,14.61
2023-04-22T20:31:46.776Z,14.57
2023-04-22T20:34:14.247Z,14.61
2023-04-22T20:36:41.821Z,14.51
2023-04-22T20:39:13.268Z,14.43
2023-04-22T20:41:41.043Z,14.43
2023-04-22T20:44:08.672Z,14.34
2023-04-22T20:46:37.446Z,14.38
2023-04-22T20:49:04.942Z,14.42
2023-04-22T20:51:32.185Z,14.37
2023-04-22T20:53:59.656Z,14.36
2023-04-22T20:56:27.548Z,14.33
2023-04-22T20:58:54.985Z,14.29
2023-04-22T21:01:22.852Z,14.30
2023-04-22T21:03:55.300Z,14.24
2023-04-22T21:06:22.925Z,14.23
2023-04-22T21:08:50.653Z,14.18
2023-04-22T21:11:18.747Z,14.21
2023-04-22T21:13:46.537Z,14.27
2023-04-22T21:16:18.697Z,14.23
2023-04-22T21:18:46.412Z,14.25
2023-04-22T21:21:16.631Z,14.25
2023-04-22T21:23:44.338Z,14.26
2023-04-22T21:26:11.584Z,14.26
2023-04-22T21:28:39.276Z,14.19
2023-04-22T21:31:07.027Z,14.14
2023-04-22T21:33:34.108Z,14.16
2023-04-22T21:36:01.213Z,14.19
2023-04-22T21:38:29.493Z,14.11
2023-04-22T21:40:57.288Z,14.08
2023-04-22T21:43:24.662Z,14.10
2023-04-22T21:45:52.053Z,14.03
2023-04-22T21:48:19.400Z,14.10
2023-04-22T21:50:46.776Z,14.12
2023-04-22T21:53:14.297Z,13.99
2023-04-22T21:55:41.682Z,14.01
2023-04-22T21:58:09.170Z,13.99
2023-04-22T22:00:37.784Z,13.95
2023-04-22T22:03:06.297Z,14.01
2023-04-22T22:05:33.845Z,13.92
2023-04-22T22:08:01.887Z,13.93
2023-04-22T22:10:29.287Z,13.95
2023-04-22T22:12:56.389Z,13.86
2023-04-22T22:15:23.484Z,13.78
2023-04-22T22:17:51.352Z,13.78
2023-04-22T22:20:20.378Z,13.76
2023-04-22T22:22:48.138Z,13.80
2023-04-22T22:25:16.388Z,13.86
2023-04-22T22:27:48.950Z,13.76
2023-04-22T22:30:18.710Z,13.86
2023-04-22T22:32:46.267Z,13.85
2023-04-22T22:35:14.006Z,13.81
2023-04-22T22:37:41.221Z,13.83
2023-04-22T22:40:09.142Z,13.72
2023-04-22T22:42:36.713Z,13.76
2023-04-22T22:45:05.348Z,13.73
2023-04-22T22:47:32.895Z,13.67
2023-04-22T22:50:00.661Z,13.64
2023-04-22T22:52:27.889Z,13.64
2023-04-22T22:54:54.871Z,13.59
2023-04-22T22:57:21.935Z,13.59
2023-04-22T22:59:49.317Z,13.57
2023-04-22T23:02:17.234Z,13.55
2023-04-22T23:04:45.555Z,13.58
2023-04-22T23:07:14.728Z,13.60
2023-04-22T23:09:42.425Z,13.66
2023-04-22T23:12:09.792Z,13.66
2023-04-22T23:14:37.175Z,13.59
2023-04-22T23:17:04.544Z,13.62
2023-04-22T23:19:32.084Z,13.63
2023-04-22T23:21:59.503Z,13.62
2023-04-22T23:24:27.149Z,13.60
2023-04-22T23:26:54.744Z,13.56
2023-04-22T23:29:22.316Z,13.47
2023-04-22T23:31:51.832Z,13.39
2023-04-22T23:34:23.771Z,13.34
2023-04-22T23:36:51.268Z,13.28
2023-04-22T23:39:19.074Z,13.22
2023-04-22T23:41:46.390Z,13.24
2023-04-22T23:44:13.707Z,13.26
2023-04-22T23:46:41.270Z,13.25
2023-04-22T23:49:08.729Z,13.24
2023-04-22T23:51:37.046Z,13.26
2023-04-22T23:54:04.402Z,13.23
2023-04-22T23:56:31.920Z,13.20
2023-04-22T23:58:59.331Z,13.21
